sensor_id;sensor_type;location;lat;lon;timestamp;temperature;humidity
64961;SHT31;51487;52.266;10.542;2023-05-07T00:00:01;10.38;89.79
64961;SHT31;51487;52.266;10.542;2023-05-07T00:02:26;10.41;89.82
64961;SHT31;51487;52.266;10.542;2023-05-07T00:04:52;10.47;89.69
64961;SHT31;51487;52.266;10.542;2023-05-07T00:07:18;10.53;89.41
64961;SHT31;51487;52.266;10.542;2023-05-07T00:09:44;10.64;89.28
64961;SHT31;51487;52.266;10.542;2023-05-07T00:12:09;10.48;89.49
64961;SHT31;51487;52.266;10.542;2023-05-07T00:14:35;10.54;89.52
64961;SHT31;51487;52.266;10.542;2023-05-07T00:17:01;10.58;89.50
64961;SHT31;51487;52.266;10.542;2023-05-07T00:19:27;10.55;89.43
64961;SHT31;51487;52.266;10.542;2023-05-07T00:21:52;10.47;89.81
64961;SHT31;51487;52.266;10.542;2023-05-07T00:24:21;10.48;89.67
64961;SHT31;51487;52.266;10.542;2023-05-07T00:26:47;10.55;89.39
64961;SHT31;51487;52.266;10.542;2023-05-07T00:29:12;10.57;88.65
64961;SHT31;51487;52.266;10.542;2023-05-07T00:31:38;10.60;88.45
64961;SHT31;51487;52.266;10.542;2023-05-07T00:34:03;10.61;87.86
64961;SHT31;51487;52.266;10.542;2023-05-07T00:36:29;10.62;87.65
64961;SHT31;51487;52.266;10.542;2023-05-07T00:38:58;10.64;87.40
64961;SHT31;51487;52.266;10.542;2023-05-07T00:41:25;10.60;87.50
64961;SHT31;51487;52.266;10.542;2023-05-07T00:43:51;10.67;87.24
64961;SHT31;51487;52.266;10.542;2023-05-07T00:46:17;10.64;87.25
64961;SHT31;51487;52.266;10.542;2023-05-07T00:48:44;10.64;87.37
64961;SHT31;51487;52.266;10.542;2023-05-07T00:51:10;10.65;87.30
64961;SHT31;51487;52.266;10.542;2023-05-07T00:53:37;10.68;87.30
64961;SHT31;51487;52.266;10.542;2023-05-07T00:56:03;10.72;87.45
64961;SHT31;51487;52.266;10.542;2023-05-07T00:58:29;10.78;87.29
64961;SHT31;51487;52.266;10.542;2023-05-07T01:00:56;10.76;87.28
64961;SHT31;51487;52.266;10.542;2023-05-07T01:03:21;10.71;87.69
64961;SHT31;51487;52.266;10.542;2023-05-07T01:05:48;10.71;87.65
64961;SHT31;51487;52.266;10.542;2023-05-07T01:08:15;10.67;87.66
64961;SHT31;51487;52.266;10.542;2023-05-07T01:10:42;10.68;87.72
64961;SHT31;51487;52.266;10.542;2023-05-07T01:13:12;10.69;87.09
64961;SHT31;51487;52.266;10.542;2023-05-07T01:15:38;10.68;87.39
64961;SHT31;51487;52.266;10.542;2023-05-07T01:18:07;10.62;87.40
64961;SHT31;51487;52.266;10.542;2023-05-07T01:20:32;10.54;88.10
64961;SHT31;51487;52.266;10.542;2023-05-07T01:23:00;10.48;87.75
64961;SHT31;51487;52.266;10.542;2023-05-07T01:25:26;10.50;87.69
64961;SHT31;51487;52.266;10.542;2023-05-07T01:27:52;10.58;87.80
64961;SHT31;51487;52.266;10.542;2023-05-07T01:30:20;10.53;87.36
64961;SHT31;51487;52.266;10.542;2023-05-07T01:32:57;10.47;87.93
64961;SHT31;51487;52.266;10.542;2023-05-07T01:35:29;10.44;87.93
64961;SHT31;51487;52.266;10.542;2023-05-07T01:37:56;10.48;88.19
64961;SHT31;51487;52.266;10.542;2023-05-07T01:40:24;10.44;87.99
64961;SHT31;51487;52.266;10.542;2023-05-07T01:42:50;10.41;88.34
64961;SHT31;51487;52.266;10.542;2023-05-07T01:45:16;10.34;88.58
64961;SHT31;51487;52.266;10.542;2023-05-07T01:47:43;10.33;88.62
64961;SHT31;51487;52.266;10.542;2023-05-07T01:50:09;10.36;88.40
64961;SHT31;51487;52.266;10.542;2023-05-07T01:52:37;10.37;88.33
64961;SHT31;51487;52.266;10.542;2023-05-07T01:55:04;10.27;88.20
64961;SHT31;51487;52.266;10.542;2023-05-07T01:57:30;10.17;88.47
64961;SHT31;51487;52.266;10.542;2023-05-07T01:59:55;10.30;88.24
64961;SHT31;51487;52.266;10.542;2023-05-07T02:02:21;10.24;88.60
64961;SHT31;51487;52.266;10.542;2023-05-07T02:04:46;10.32;88.36
64961;SHT31;51487;52.266;10.542;2023-05-07T02:07:12;10.23;88.43
64961;SHT31;51487;52.266;10.542;2023-05-07T02:09:37;10.21;88.79
64961;SHT31;51487;52.266;10.542;2023-05-07T02:12:03;10.16;89.04
64961;SHT31;51487;52.266;10.542;2023-05-07T02:14:29;10.17;89.11
64961;SHT31;51487;52.266;10.542;2023-05-07T02:16:55;10.16;89.19
64961;SHT31;51487;52.266;10.542;2023-05-07T02:19:20;10.16;89.07
64961;SHT31;51487;52.266;10.542;2023-05-07T02:21:47;10.25;88.69
64961;SHT31;51487;52.266;10.542;2023-05-07T02:24:13;10.17;88.69
64961;SHT31;51487;52.266;10.542;2023-05-07T02:26:40;10.30;88.34
64961;SHT31;51487;52.266;10.542;2023-05-07T02:29:06;10.33;87.99
64961;SHT31;51487;52.266;10.542;2023-05-07T02:31:32;10.25;88.38
64961;SHT31;51487;52.266;10.542;2023-05-07T02:33:59;10.23;88.68
64961;SHT31;51487;52.266;10.542;2023-05-07T02:36:25;10.12;89.08
64961;SHT31;51487;52.266;10.542;2023-05-07T02:38:52;10.12;89.14
64961;SHT31;51487;52.266;10.542;2023-05-07T02:41:17;10.09;89.14
64961;SHT31;51487;52.266;10.542;2023-05-07T02:43:43;10.12;89.61
64961;SHT31;51487;52.266;10.542;2023-05-07T02:46:09;10.21;89.25
64961;SHT31;51487;52.266;10.542;2023-05-07T02:48:35;10.25;88.86
64961;SHT31;51487;52.266;10.542;2023-05-07T02:51:02;10.18;89.17
64961;SHT31;51487;52.266;10.542;2023-05-07T02:53:28;10.27;88.94
64961;SHT31;51487;52.266;10.542;2023-05-07T02:55:59;10.21;89.11
64961;SHT31;51487;52.266;10.542;2023-05-07T02:58:26;10.37;88.12
64961;SHT31;51487;52.266;10.542;2023-05-07T03:00:52;10.17;88.70
64961;SHT31;51487;52.266;10.542;2023-05-07T03:03:20;10.20;88.30
64961;SHT31;51487;52.266;10.542;2023-05-07T03:05:45;10.18;88.24
64961;SHT31;51487;52.266;10.542;2023-05-07T03:08:11;10.12;88.19
64961;SHT31;51487;52.266;10.542;2023-05-07T03:10:37;9.99;88.23
64961;SHT31;51487;52.266;10.542;2023-05-07T03:13:04;9.90;88.38
64961;SHT31;51487;52.266;10.542;2023-05-07T03:15:30;9.96;88.60
64961;SHT31;51487;52.266;10.542;2023-05-07T03:17:55;10.00;88.71
64961;SHT31;51487;52.266;10.542;2023-05-07T03:20:21;9.97;88.49
64961;SHT31;51487;52.266;10.542;2023-05-07T03:22:47;9.92;88.51
64961;SHT31;51487;52.266;10.542;2023-05-07T03:25:13;9.86;88.52
64961;SHT31;51487;52.266;10.542;2023-05-07T03:27:39;9.89;88.46
64961;SHT31;51487;52.266;10.542;2023-05-07T03:30:06;9.92;88.30
64961;SHT31;51487;52.266;10.542;2023-05-07T03:32:33;9.97;88.38
64961;SHT31;51487;52.266;10.542;2023-05-07T03:34:58;9.90;88.17
64961;SHT31;51487;52.266;10.542;2023-05-07T03:37:24;9.89;88.49
64961;SHT31;51487;52.266;10.542;2023-05-07T03:39:50;9.94;87.94
64961;SHT31;51487;52.266;10.542;2023-05-07T03:42:15;9.97;87.98
64961;SHT31;51487;52.266;10.542;2023-05-07T03:44:41;10.02;87.87
64961;SHT31;51487;52.266;10.542;2023-05-07T03:47:06;10.09;87.82
64961;SHT31;51487;52.266;10.542;2023-05-07T03:49:32;10.13;87.49
64961;SHT31;51487;52.266;10.542;2023-05-07T03:51:57;10.02;87.82
64961;SHT31;51487;52.266;10.542;2023-05-07T03:54:23;10.14;87.60
64961;SHT31;51487;52.266;10.542;2023-05-07T03:56:48;10.12;88.16
64961;SHT31;51487;52.266;10.542;2023-05-07T03:59:14;10.16;87.42
64961;SHT31;51487;52.266;10.542;2023-05-07T04:01:40;10.00;87.55
64961;SHT31;51487;52.266;10.542;2023-05-07T04:04:05;10.03;87.39
64961;SHT31;51487;52.266;10.542;2023-05-07T04:06:31;10.03;87.34
64961;SHT31;51487;52.266;10.542;2023-05-07T04:08:57;9.94;87.16
64961;SHT31;51487;52.266;10.542;2023-05-07T04:11:23;10.14;86.12
64961;SHT31;51487;52.266;10.542;2023-05-07T04:13:48;10.12;86.10
64961;SHT31;51487;52.266;10.542;2023-05-07T04:16:14;10.03;86.65
64961;SHT31;51487;52.266;10.542;2023-05-07T04:18:40;10.06;86.74
64961;SHT31;51487;52.266;10.542;2023-05-07T04:21:05;10.09;86.29
64961;SHT31;51487;52.266;10.542;2023-05-07T04:23:31;10.00;85.92
64961;SHT31;51487;52.266;10.542;2023-05-07T04:25:56;10.03;85.76
64961;SHT31;51487;52.266;10.542;2023-05-07T04:28:23;10.21;85.20
64961;SHT31;51487;52.266;10.542;2023-05-07T04:30:48;10.16;85.16
64961;SHT31;51487;52.266;10.542;2023-05-07T04:33:15;10.16;85.27
64961;SHT31;51487;52.266;10.542;2023-05-07T04:35:43;10.29;84.56
64961;SHT31;51487;52.266;10.542;2023-05-07T04:38:08;10.20;84.84
64961;SHT31;51487;52.266;10.542;2023-05-07T04:40:36;10.25;84.75
64961;SHT31;51487;52.266;10.542;2023-05-07T04:43:01;10.30;84.84
64961;SHT31;51487;52.266;10.542;2023-05-07T04:45:27;10.32;84.55
64961;SHT31;51487;52.266;10.542;2023-05-07T04:47:53;10.21;85.02
64961;SHT31;51487;52.266;10.542;2023-05-07T04:50:18;10.27;84.71
64961;SHT31;51487;52.266;10.542;2023-05-07T04:52:45;10.16;84.96
64961;SHT31;51487;52.266;10.542;2023-05-07T04:55:11;10.37;84.58
64961;SHT31;51487;52.266;10.542;2023-05-07T04:57:36;10.29;84.48
64961;SHT31;51487;52.266;10.542;2023-05-07T05:00:05;10.36;84.41
64961;SHT31;51487;52.266;10.542;2023-05-07T05:02:33;10.41;83.99
64961;SHT31;51487;52.266;10.542;2023-05-07T05:04:59;10.51;83.65
64961;SHT31;51487;52.266;10.542;2023-05-07T05:07:25;10.55;83.64
64961;SHT31;51487;52.266;10.542;2023-05-07T05:09:50;10.58;83.50
64961;SHT31;51487;52.266;10.542;2023-05-07T05:12:16;10.78;82.82
64961;SHT31;51487;52.266;10.542;2023-05-07T05:14:41;10.79;82.56
64961;SHT31;51487;52.266;10.542;2023-05-07T05:17:07;10.79;81.85
64961;SHT31;51487;52.266;10.542;2023-05-07T05:19:32;10.71;82.53
64961;SHT31;51487;52.266;10.542;2023-05-07T05:21:58;10.72;82.60
64961;SHT31;51487;52.266;10.542;2023-05-07T05:24:26;10.54;83.08
64961;SHT31;51487;52.266;10.542;2023-05-07T05:26:53;10.61;83.28
64961;SHT31;51487;52.266;10.542;2023-05-07T05:29:19;10.61;82.64
64961;SHT31;51487;52.266;10.542;2023-05-07T05:31:45;10.74;82.81
64961;SHT31;51487;52.266;10.542;2023-05-07T05:34:10;10.69;82.45
64961;SHT31;51487;52.266;10.542;2023-05-07T05:36:36;10.55;82.90
64961;SHT31;51487;52.266;10.542;2023-05-07T05:39:01;10.62;82.75
64961;SHT31;51487;52.266;10.542;2023-05-07T05:41:27;10.55;83.49
64961;SHT31;51487;52.266;10.542;2023-05-07T05:43:53;10.53;83.53
64961;SHT31;51487;52.266;10.542;2023-05-07T05:46:18;10.53;83.58
64961;SHT31;51487;52.266;10.542;2023-05-07T05:48:44;10.37;83.89
64961;SHT31;51487;52.266;10.542;2023-05-07T05:51:10;10.38;84.03
64961;SHT31;51487;52.266;10.542;2023-05-07T05:53:35;10.47;83.55
64961;SHT31;51487;52.266;10.542;2023-05-07T05:56:01;10.51;83.55
64961;SHT31;51487;52.266;10.542;2023-05-07T05:58:26;10.53;83.20
64961;SHT31;51487;52.266;10.542;2023-05-07T06:00:52;10.47;83.35
64961;SHT31;51487;52.266;10.542;2023-05-07T06:03:18;10.55;83.25
64961;SHT31;51487;52.266;10.542;2023-05-07T06:05:44;10.67;83.97
64961;SHT31;51487;52.266;10.542;2023-05-07T06:08:09;10.75;82.77
64961;SHT31;51487;52.266;10.542;2023-05-07T06:10:37;10.75;82.83
64961;SHT31;51487;52.266;10.542;2023-05-07T06:13:02;10.65;82.73
64961;SHT31;51487;52.266;10.542;2023-05-07T06:15:28;10.65;83.03
64961;SHT31;51487;52.266;10.542;2023-05-07T06:17:53;10.76;82.86
64961;SHT31;51487;52.266;10.542;2023-05-07T06:20:21;10.82;82.61
64961;SHT31;51487;52.266;10.542;2023-05-07T06:22:46;10.79;82.71
64961;SHT31;51487;52.266;10.542;2023-05-07T06:25:12;10.76;82.64
64961;SHT31;51487;52.266;10.542;2023-05-07T06:27:37;10.91;82.94
64961;SHT31;51487;52.266;10.542;2023-05-07T06:30:06;10.91;82.33
64961;SHT31;51487;52.266;10.542;2023-05-07T06:32:31;10.99;82.10
64961;SHT31;51487;52.266;10.542;2023-05-07T06:34:57;11.13;81.42
64961;SHT31;51487;52.266;10.542;2023-05-07T06:37:23;11.18;80.93
64961;SHT31;51487;52.266;10.542;2023-05-07T06:39:48;10.92;81.48
64961;SHT31;51487;52.266;10.542;2023-05-07T06:42:14;11.13;81.10
64961;SHT31;51487;52.266;10.542;2023-05-07T06:44:39;11.20;80.61
64961;SHT31;51487;52.266;10.542;2023-05-07T06:47:05;11.27;80.56
64961;SHT31;51487;52.266;10.542;2023-05-07T06:49:31;11.36;80.47
64961;SHT31;51487;52.266;10.542;2023-05-07T06:51:57;11.36;79.89
64961;SHT31;51487;52.266;10.542;2023-05-07T06:54:23;11.64;79.21
64961;SHT31;51487;52.266;10.542;2023-05-07T06:56:48;11.73;79.43
64961;SHT31;51487;52.266;10.542;2023-05-07T06:59:14;11.70;79.23
64961;SHT31;51487;52.266;10.542;2023-05-07T07:01:40;11.63;79.17
64961;SHT31;51487;52.266;10.542;2023-05-07T07:04:05;11.73;79.30
64961;SHT31;51487;52.266;10.542;2023-05-07T07:06:31;11.61;79.38
64961;SHT31;51487;52.266;10.542;2023-05-07T07:08:59;11.70;79.29
64961;SHT31;51487;52.266;10.542;2023-05-07T07:11:24;11.70;78.91
64961;SHT31;51487;52.266;10.542;2023-05-07T07:13:50;11.63;79.40
64961;SHT31;51487;52.266;10.542;2023-05-07T07:16:16;11.69;79.02
64961;SHT31;51487;52.266;10.542;2023-05-07T07:18:42;11.70;79.21
64961;SHT31;51487;52.266;10.542;2023-05-07T07:21:08;11.78;79.12
64961;SHT31;51487;52.266;10.542;2023-05-07T07:23:33;11.59;79.45
64961;SHT31;51487;52.266;10.542;2023-05-07T07:25:59;11.66;79.72
64961;SHT31;51487;52.266;10.542;2023-05-07T07:28:24;11.50;80.20
64961;SHT31;51487;52.266;10.542;2023-05-07T07:30:50;11.37;80.48
64961;SHT31;51487;52.266;10.542;2023-05-07T07:33:15;11.40;80.69
64961;SHT31;51487;52.266;10.542;2023-05-07T07:35:41;11.63;80.29
64961;SHT31;51487;52.266;10.542;2023-05-07T07:38:07;11.36;80.81
64961;SHT31;51487;52.266;10.542;2023-05-07T07:40:34;11.49;80.92
64961;SHT31;51487;52.266;10.542;2023-05-07T07:43:00;11.51;80.48
64961;SHT31;51487;52.266;10.542;2023-05-07T07:45:26;11.40;80.88
64961;SHT31;51487;52.266;10.542;2023-05-07T07:47:52;11.43;80.64
64961;SHT31;51487;52.266;10.542;2023-05-07T07:50:18;11.47;80.45
64961;SHT31;51487;52.266;10.542;2023-05-07T07:52:44;11.49;80.21
64961;SHT31;51487;52.266;10.542;2023-05-07T07:55:09;11.53;79.95
64961;SHT31;51487;52.266;10.542;2023-05-07T07:57:35;11.67;79.35
64961;SHT31;51487;52.266;10.542;2023-05-07T08:00:01;11.39;79.94
64961;SHT31;51487;52.266;10.542;2023-05-07T08:02:27;11.59;80.28
64961;SHT31;51487;52.266;10.542;2023-05-07T08:04:52;11.69;79.41
64961;SHT31;51487;52.266;10.542;2023-05-07T08:07:18;11.67;79.60
64961;SHT31;51487;52.266;10.542;2023-05-07T08:09:46;11.80;78.75
64961;SHT31;51487;52.266;10.542;2023-05-07T08:12:11;11.97;78.50
64961;SHT31;51487;52.266;10.542;2023-05-07T08:14:37;12.01;78.64
64961;SHT31;51487;52.266;10.542;2023-05-07T08:17:03;12.15;77.80
64961;SHT31;51487;52.266;10.542;2023-05-07T08:19:29;12.24;77.62
64961;SHT31;51487;52.266;10.542;2023-05-07T08:21:54;12.28;77.92
64961;SHT31;51487;52.266;10.542;2023-05-07T08:24:20;12.15;77.73
64961;SHT31;51487;52.266;10.542;2023-05-07T08:26:46;12.28;77.65
64961;SHT31;51487;52.266;10.542;2023-05-07T08:29:11;12.42;77.58
64961;SHT31;51487;52.266;10.542;2023-05-07T08:31:37;12.26;77.75
64961;SHT31;51487;52.266;10.542;2023-05-07T08:34:05;12.30;77.54
64961;SHT31;51487;52.266;10.542;2023-05-07T08:36:31;12.40;76.94
64961;SHT31;51487;52.266;10.542;2023-05-07T08:38:57;12.33;77.17
64961;SHT31;51487;52.266;10.542;2023-05-07T08:41:23;12.26;77.54
64961;SHT31;51487;52.266;10.542;2023-05-07T08:43:50;12.42;77.10
64961;SHT31;51487;52.266;10.542;2023-05-07T08:46:21;12.36;77.26
64961;SHT31;51487;52.266;10.542;2023-05-07T08:48:51;16.79;99.99
64961;SHT31;51487;52.266;10.542;2023-05-07T08:51:20;16.76;98.53
64961;SHT31;51487;52.266;10.542;2023-05-07T08:53:47;17.68;86.45
64961;SHT31;51487;52.266;10.542;2023-05-07T08:56:17;18.78;80.80
64961;SHT31;51487;52.266;10.542;2023-05-07T08:58:44;19.24;76.12
64961;SHT31;51487;52.266;10.542;2023-05-07T09:01:14;19.65;74.56
64961;SHT31;51487;52.266;10.542;2023-05-07T09:03:40;20.02;71.70
64961;SHT31;51487;52.266;10.542;2023-05-07T09:06:07;20.32;70.52
64961;SHT31;51487;52.266;10.542;2023-05-07T09:08:33;20.32;69.35
64961;SHT31;51487;52.266;10.542;2023-05-07T09:10:59;20.47;68.49
64961;SHT31;51487;52.266;10.542;2023-05-07T09:13:27;20.64;67.61
64961;SHT31;51487;52.266;10.542;2023-05-07T09:15:53;21.01;66.02
64961;SHT31;51487;52.266;10.542;2023-05-07T09:18:19;21.05;65.15
64961;SHT31;51487;52.266;10.542;2023-05-07T09:20:44;21.04;65.09
64961;SHT31;51487;52.266;10.542;2023-05-07T09:23:10;20.97;65.07
64961;SHT31;51487;52.266;10.542;2023-05-07T09:25:36;21.02;64.46
64961;SHT31;51487;52.266;10.542;2023-05-07T09:28:04;21.17;63.77
64961;SHT31;51487;52.266;10.542;2023-05-07T09:30:33;20.85;55.95
64961;SHT31;51487;52.266;10.542;2023-05-07T09:33:01;18.20;58.61
64961;SHT31;51487;52.266;10.542;2023-05-07T09:35:28;16.97;62.40
64961;SHT31;51487;52.266;10.542;2023-05-07T09:37:55;16.08;64.98
64961;SHT31;51487;52.266;10.542;2023-05-07T09:40:24;15.19;68.00
64961;SHT31;51487;52.266;10.542;2023-05-07T09:42:50;14.63;68.97
64961;SHT31;51487;52.266;10.542;2023-05-07T09:45:28;14.27;69.51
64961;SHT31;51487;52.266;10.542;2023-05-07T09:47:56;14.26;69.86
64961;SHT31;51487;52.266;10.542;2023-05-07T09:50:48;14.14;70.25
64961;SHT31;51487;52.266;10.542;2023-05-07T09:53:17;14.21;69.80
64961;SHT31;51487;52.266;10.542;2023-05-07T09:55:43;14.30;69.54
64961;SHT31;51487;52.266;10.542;2023-05-07T09:58:12;14.13;70.49
64961;SHT31;51487;52.266;10.542;2023-05-07T10:00:39;14.37;69.97
64961;SHT31;51487;52.266;10.542;2023-05-07T10:03:06;14.13;70.64
64961;SHT31;51487;52.266;10.542;2023-05-07T10:05:32;14.47;70.20
64961;SHT31;51487;52.266;10.542;2023-05-07T10:07:59;14.57;69.81
64961;SHT31;51487;52.266;10.542;2023-05-07T10:10:27;14.48;70.11
64961;SHT31;51487;52.266;10.542;2023-05-07T10:12:54;14.86;69.52
64961;SHT31;51487;52.266;10.542;2023-05-07T10:15:21;14.93;68.98
64961;SHT31;51487;52.266;10.542;2023-05-07T10:17:48;14.84;69.58
64961;SHT31;51487;52.266;10.542;2023-05-07T10:20:13;14.78;69.57
64961;SHT31;51487;52.266;10.542;2023-05-07T10:22:43;14.63;70.13
64961;SHT31;51487;52.266;10.542;2023-05-07T10:25:20;14.60;70.62
64961;SHT31;51487;52.266;10.542;2023-05-07T10:27:48;14.17;72.04
64961;SHT31;51487;52.266;10.542;2023-05-07T10:30:32;13.85;72.88
64961;SHT31;51487;52.266;10.542;2023-05-07T10:33:05;13.79;73.28
64961;SHT31;51487;52.266;10.542;2023-05-07T10:35:40;13.80;72.83
64961;SHT31;51487;52.266;10.542;2023-05-07T10:38:06;13.70;73.35
64961;SHT31;51487;52.266;10.542;2023-05-07T10:40:33;13.73;73.66
64961;SHT31;51487;52.266;10.542;2023-05-07T10:43:01;13.79;72.99
64961;SHT31;51487;52.266;10.542;2023-05-07T10:45:28;13.55;73.36
64961;SHT31;51487;52.266;10.542;2023-05-07T10:48:17;13.56;73.54
64961;SHT31;51487;52.266;10.542;2023-05-07T10:50:44;13.82;72.92
64961;SHT31;51487;52.266;10.542;2023-05-07T10:55:44;13.66;72.67
64961;SHT31;51487;52.266;10.542;2023-05-07T11:00:48;14.09;70.77
64961;SHT31;51487;52.266;10.542;2023-05-07T11:03:14;14.00;72.20
64961;SHT31;51487;52.266;10.542;2023-05-07T11:05:41;13.93;72.05
64961;SHT31;51487;52.266;10.542;2023-05-07T11:08:08;13.91;72.00
64961;SHT31;51487;52.266;10.542;2023-05-07T11:10:55;13.91;71.89
64961;SHT31;51487;52.266;10.542;2023-05-07T11:13:42;14.26;71.56
64961;SHT31;51487;52.266;10.542;2023-05-07T11:16:24;14.41;70.79
64961;SHT31;51487;52.266;10.542;2023-05-07T11:18:55;14.54;70.40
64961;SHT31;51487;52.266;10.542;2023-05-07T11:21:40;14.54;70.38
64961;SHT31;51487;52.266;10.542;2023-05-07T11:24:10;14.69;69.92
64961;SHT31;51487;52.266;10.542;2023-05-07T11:29:13;14.68;70.23
64961;SHT31;51487;52.266;10.542;2023-05-07T11:31:39;14.64;70.50
64961;SHT31;51487;52.266;10.542;2023-05-07T11:34:06;14.55;70.41
64961;SHT31;51487;52.266;10.542;2023-05-07T11:36:33;14.71;70.11
64961;SHT31;51487;52.266;10.542;2023-05-07T11:38:58;14.65;69.67
64961;SHT31;51487;52.266;10.542;2023-05-07T11:41:36;14.75;69.57
64961;SHT31;51487;52.266;10.542;2023-05-07T11:44:02;14.72;69.61
64961;SHT31;51487;52.266;10.542;2023-05-07T11:46:28;14.60;70.18
64961;SHT31;51487;52.266;10.542;2023-05-07T11:48:55;14.33;70.20
64961;SHT31;51487;52.266;10.542;2023-05-07T11:51:24;14.20;71.42
64961;SHT31;51487;52.266;10.542;2023-05-07T11:53:51;14.17;71.96
64961;SHT31;51487;52.266;10.542;2023-05-07T11:56:18;13.97;71.98
64961;SHT31;51487;52.266;10.542;2023-05-07T11:58:46;14.10;72.17
64961;SHT31;51487;52.266;10.542;2023-05-07T12:01:14;13.93;72.55
64961;SHT31;51487;52.266;10.542;2023-05-07T12:03:42;14.20;71.84
64961;SHT31;51487;52.266;10.542;2023-05-07T12:06:09;14.10;71.23
64961;SHT31;51487;52.266;10.542;2023-05-07T12:08:38;14.18;71.56
64961;SHT31;51487;52.266;10.542;2023-05-07T12:11:07;14.37;70.79
64961;SHT31;51487;52.266;10.542;2023-05-07T12:13:32;14.20;71.42
64961;SHT31;51487;52.266;10.542;2023-05-07T12:15:58;14.31;70.86
64961;SHT31;51487;52.266;10.542;2023-05-07T12:18:24;14.17;71.47
64961;SHT31;51487;52.266;10.542;2023-05-07T12:20:50;14.12;72.01
64961;SHT31;51487;52.266;10.542;2023-05-07T12:23:16;14.24;71.69
64961;SHT31;51487;52.266;10.542;2023-05-07T12:25:43;14.10;71.88
64961;SHT31;51487;52.266;10.542;2023-05-07T12:28:14;13.96;72.45
64961;SHT31;51487;52.266;10.542;2023-05-07T12:30:43;13.97;72.65
64961;SHT31;51487;52.266;10.542;2023-05-07T12:33:09;13.89;72.51
64961;SHT31;51487;52.266;10.542;2023-05-07T12:35:42;14.05;72.00
64961;SHT31;51487;52.266;10.542;2023-05-07T12:38:14;14.20;71.84
64961;SHT31;51487;52.266;10.542;2023-05-07T12:40:44;14.23;71.81
64961;SHT31;51487;52.266;10.542;2023-05-07T12:43:18;14.30;71.75
64961;SHT31;51487;52.266;10.542;2023-05-07T12:45:47;14.00;72.55
64961;SHT31;51487;52.266;10.542;2023-05-07T12:48:14;14.09;72.99
64961;SHT31;51487;52.266;10.542;2023-05-07T12:50:40;14.06;73.01
64961;SHT31;51487;52.266;10.542;2023-05-07T12:53:07;14.21;72.09
64961;SHT31;51487;52.266;10.542;2023-05-07T12:55:48;14.26;71.78
64961;SHT31;51487;52.266;10.542;2023-05-07T12:58:29;14.35;71.98
64961;SHT31;51487;52.266;10.542;2023-05-07T13:00:57;14.49;71.49
64961;SHT31;51487;52.266;10.542;2023-05-07T13:03:31;14.42;71.72
64961;SHT31;51487;52.266;10.542;2023-05-07T13:06:02;14.35;71.98
64961;SHT31;51487;52.266;10.542;2023-05-07T13:08:37;14.13;72.77
64961;SHT31;51487;52.266;10.542;2023-05-07T13:11:07;14.51;72.17
64961;SHT31;51487;52.266;10.542;2023-05-07T13:13:36;14.48;72.08
64961;SHT31;51487;52.266;10.542;2023-05-07T13:16:03;14.75;71.27
64961;SHT31;51487;52.266;10.542;2023-05-07T13:18:30;14.88;70.42
64961;SHT31;51487;52.266;10.542;2023-05-07T13:20:56;14.72;70.62
64961;SHT31;51487;52.266;10.542;2023-05-07T13:23:22;14.81;70.68
64961;SHT31;51487;52.266;10.542;2023-05-07T13:25:48;15.14;69.65
64961;SHT31;51487;52.266;10.542;2023-05-07T13:28:15;15.19;69.68
64961;SHT31;51487;52.266;10.542;2023-05-07T13:30:40;15.02;69.64
64961;SHT31;51487;52.266;10.542;2023-05-07T13:33:06;15.10;69.52
64961;SHT31;51487;52.266;10.542;2023-05-07T13:35:33;15.06;69.07
64961;SHT31;51487;52.266;10.542;2023-05-07T13:37:58;15.22;69.14
64961;SHT31;51487;52.266;10.542;2023-05-07T13:40:24;15.26;68.64
64961;SHT31;51487;52.266;10.542;2023-05-07T13:42:50;15.02;68.62
64961;SHT31;51487;52.266;10.542;2023-05-07T13:45:18;14.92;68.68
64961;SHT31;51487;52.266;10.542;2023-05-07T13:47:44;15.02;68.94
64961;SHT31;51487;52.266;10.542;2023-05-07T13:50:11;15.10;68.95
64961;SHT31;51487;52.266;10.542;2023-05-07T13:52:41;15.18;69.06
64961;SHT31;51487;52.266;10.542;2023-05-07T13:55:09;15.09;69.79
64961;SHT31;51487;52.266;10.542;2023-05-07T13:57:36;14.93;69.72
64961;SHT31;51487;52.266;10.542;2023-05-07T14:00:03;15.09;69.52
64961;SHT31;51487;52.266;10.542;2023-05-07T14:02:31;14.82;69.53
64961;SHT31;51487;52.266;10.542;2023-05-07T14:04:56;15.19;69.21
64961;SHT31;51487;52.266;10.542;2023-05-07T14:07:22;15.20;68.59
64961;SHT31;51487;52.266;10.542;2023-05-07T14:09:47;15.47;67.86
64961;SHT31;51487;52.266;10.542;2023-05-07T14:12:13;15.55;67.52
64961;SHT31;51487;52.266;10.542;2023-05-07T14:14:38;15.94;66.90
64961;SHT31;51487;52.266;10.542;2023-05-07T14:17:04;15.80;66.47
64961;SHT31;51487;52.266;10.542;2023-05-07T14:19:29;15.77;66.59
64961;SHT31;51487;52.266;10.542;2023-05-07T14:21:55;15.88;66.79
64961;SHT31;51487;52.266;10.542;2023-05-07T14:24:20;15.88;67.01
64961;SHT31;51487;52.266;10.542;2023-05-07T14:26:46;15.67;68.00
64961;SHT31;51487;52.266;10.542;2023-05-07T14:29:11;15.90;67.31
64961;SHT31;51487;52.266;10.542;2023-05-07T14:31:37;15.65;67.49
64961;SHT31;51487;52.266;10.542;2023-05-07T14:34:03;15.60;67.88
64961;SHT31;51487;52.266;10.542;2023-05-07T14:36:28;15.39;68.28
64961;SHT31;51487;52.266;10.542;2023-05-07T14:38:55;15.40;67.70
64961;SHT31;51487;52.266;10.542;2023-05-07T14:41:22;15.43;68.29
64961;SHT31;51487;52.266;10.542;2023-05-07T14:43:48;15.50;67.42
64961;SHT31;51487;52.266;10.542;2023-05-07T14:46:18;15.55;67.60
64961;SHT31;51487;52.266;10.542;2023-05-07T14:48:47;15.33;68.47
64961;SHT31;51487;52.266;10.542;2023-05-07T14:51:13;15.13;68.75
64961;SHT31;51487;52.266;10.542;2023-05-07T14:53:41;15.02;69.74
64961;SHT31;51487;52.266;10.542;2023-05-07T14:56:07;14.98;69.60
64961;SHT31;51487;52.266;10.542;2023-05-07T14:58:34;14.76;69.62
64961;SHT31;51487;52.266;10.542;2023-05-07T15:01:00;14.85;69.54
64961;SHT31;51487;52.266;10.542;2023-05-07T15:03:27;14.89;69.33
64961;SHT31;51487;52.266;10.542;2023-05-07T15:05:53;14.98;69.16
64961;SHT31;51487;52.266;10.542;2023-05-07T15:08:19;15.12;68.81
64961;SHT31;51487;52.266;10.542;2023-05-07T15:10:44;15.13;68.71
64961;SHT31;51487;52.266;10.542;2023-05-07T15:13:11;15.32;68.80
64961;SHT31;51487;52.266;10.542;2023-05-07T15:15:38;15.46;68.09
64961;SHT31;51487;52.266;10.542;2023-05-07T15:18:05;15.44;68.48
64961;SHT31;51487;52.266;10.542;2023-05-07T15:20:30;15.63;68.22
64961;SHT31;51487;52.266;10.542;2023-05-07T15:22:56;15.74;68.03